Time;durP1;ratioP1;P1;durP2;ratioP2;P2;SDS_P1;SDS_P2;PMS_P1;PMS_P2;Temp;Humidity;BMP_temperature;BMP_pressure;BME280_temperature;BME280_humidity;BME280_pressure;Samples;Min_cycle;Max_cycle;Signal;HPM_P1;HPM_P2
2024/04/17 00:00:51;;;;;;;3.67;2.40;;;3.40;99.90;;;;;;5272857;27;20236;-60
2024/04/17 00:03:16;;;;;;;6.43;2.73;;;3.40;99.90;;;;;;5272680;27;20241;-60
2024/04/17 00:05:42;;;;;;;3.50;2.60;;;3.40;99.90;;;;;;5270851;27;20224;-59
2024/04/17 00:08:07;;;;;;;3.33;3.00;;;3.40;99.90;;;;;;5272774;27;20233;-59
2024/04/17 00:10:33;;;;;;;5.93;2.90;;;3.30;99.90;;;;;;5273163;27;20221;-59
2024/04/17 00:12:58;;;;;;;5.20;2.80;;;3.30;99.90;;;;;;5272699;27;20244;-59
2024/04/17 00:15:24;;;;;;;4.10;2.30;;;3.30;99.90;;;;;;5272839;27;20401;-59
2024/04/17 00:17:49;;;;;;;2.27;2.07;;;3.30;99.90;;;;;;5273124;27;20255;-55
2024/04/17 00:20:15;;;;;;;2.07;1.77;;;3.30;99.90;;;;;;5258466;27;20233;-58
2024/04/17 00:22:41;;;;;;;2.13;1.93;;;3.30;99.90;;;;;;5272766;27;20283;-59
2024/04/17 00:25:06;;;;;;;2.37;2.17;;;3.20;99.90;;;;;;5272703;27;20233;-57
2024/04/17 00:27:32;;;;;;;2.20;2.03;;;3.20;99.90;;;;;;5272807;27;20352;-58
2024/04/17 00:29:57;;;;;;;2.93;2.57;;;3.10;99.90;;;;;;5272318;27;20371;-60
2024/04/17 00:32:23;;;;;;;2.43;2.20;;;3.10;99.90;;;;;;5272525;27;20232;-59
2024/04/17 00:34:48;;;;;;;2.47;2.13;;;3.20;99.90;;;;;;5272175;27;20334;-59
2024/04/17 00:37:14;;;;;;;3.30;1.90;;;3.10;99.90;;;;;;5275051;27;20539;-58
2024/04/17 00:39:40;;;;;;;2.30;1.80;;;3.10;99.90;;;;;;5267970;27;20263;-59
2024/04/17 00:42:05;;;;;;;2.93;2.00;;;3.00;99.90;;;;;;5269710;27;20364;-58
2024/04/17 00:44:31;;;;;;;4.67;2.40;;;3.00;99.90;;;;;;5275581;27;20342;-59
2024/04/17 00:46:56;;;;;;;2.23;1.70;;;3.00;99.90;;;;;;5275884;27;20346;-60
2024/04/17 00:49:22;;;;;;;2.57;2.37;;;3.10;99.90;;;;;;5275219;27;20228;-60
2024/04/17 00:51:49;;;;;;;3.00;2.80;;;3.10;99.90;;;;;;5275688;27;20379;-58
2024/04/17 00:54:16;;;;;;;2.20;2.00;;;3.00;99.90;;;;;;5275025;27;20233;-58
2024/04/17 00:56:41;;;;;;;2.53;2.00;;;3.00;99.90;;;;;;5261888;27;20597;-60
2024/04/17 00:59:08;;;;;;;3.83;2.10;;;3.00;99.90;;;;;;5275124;27;20467;-59
2024/04/17 01:01:34;;;;;;;5.30;2.20;;;3.00;99.90;;;;;;5275310;27;20608;-59
2024/04/17 01:03:59;;;;;;;10.40;2.87;;;3.00;99.90;;;;;;5275268;27;20479;-60
2024/04/17 01:06:27;;;;;;;2.07;1.80;;;3.00;99.90;;;;;;5275207;27;20356;-60
2024/04/17 01:08:52;;;;;;;2.50;2.23;;;2.90;99.90;;;;;;5275188;27;20359;-60
2024/04/17 01:11:18;;;;;;;6.17;2.63;;;2.90;99.90;;;;;;5274761;27;20476;-59
2024/04/17 01:13:44;;;;;;;2.63;1.73;;;2.90;99.90;;;;;;5275489;27;20233;-59
2024/04/17 01:16:09;;;;;;;4.90;2.63;;;2.90;99.90;;;;;;5274970;27;20274;-59
2024/04/17 01:18:36;;;;;;;4.10;1.97;;;3.00;99.90;;;;;;5275292;27;20236;-59
2024/04/17 01:21:03;;;;;;;2.50;1.93;;;2.90;99.90;;;;;;5275280;27;20316;-60
2024/04/17 01:23:29;;;;;;;2.23;2.03;;;3.00;99.90;;;;;;5275185;27;20463;-60
2024/04/17 01:25:54;;;;;;;4.90;2.80;;;2.90;99.90;;;;;;5275004;27;20912;-60
2024/04/17 01:28:20;;;;;;;4.50;2.77;;;2.90;99.90;;;;;;5274879;27;20241;-60
2024/04/17 01:30:45;;;;;;;6.47;2.50;;;2.90;99.90;;;;;;5275186;27;20228;-60
2024/04/17 01:33:11;;;;;;;2.83;2.40;;;2.90;99.90;;;;;;5274625;27;20237;-59
2024/04/17 01:35:37;;;;;;;4.40;2.60;;;2.90;99.90;;;;;;5274898;27;20686;-60
2024/04/17 01:38:02;;;;;;;5.17;2.33;;;3.00;99.90;;;;;;5275116;27;20228;-60
2024/04/17 01:40:28;;;;;;;3.43;2.47;;;3.00;99.90;;;;;;5274842;27;20228;-60
2024/04/17 01:42:54;;;;;;;2.90;2.20;;;3.00;99.90;;;;;;5268410;27;20714;-59
2024/04/17 01:45:19;;;;;;;5.87;2.47;;;3.00;99.90;;;;;;5254872;27;20276;-58
2024/04/17 01:47:45;;;;;;;3.20;1.93;;;3.00;99.90;;;;;;5240413;27;20230;-59
2024/04/17 01:50:10;;;;;;;2.17;1.90;;;2.90;99.90;;;;;;5241142;27;20272;-60
2024/04/17 01:52:36;;;;;;;2.20;2.00;;;2.90;99.90;;;;;;5241628;27;20571;-59
2024/04/17 01:55:01;;;;;;;3.47;1.97;;;2.90;99.90;;;;;;5240904;27;20318;-62
2024/04/17 01:57:27;;;;;;;2.37;2.17;;;2.90;99.90;;;;;;5240823;27;20341;-60
2024/04/17 01:59:52;;;;;;;4.40;2.00;;;2.90;99.90;;;;;;5240997;27;20297;-59
2024/04/17 02:02:18;;;;;;;2.87;2.17;;;3.00;99.90;;;;;;5240490;27;20238;-59
2024/04/17 02:04:43;;;;;;;5.60;1.90;;;2.90;99.90;;;;;;5240716;27;20234;-58
2024/04/17 02:07:09;;;;;;;2.40;1.87;;;2.90;99.90;;;;;;5241038;27;20233;-59
2024/04/17 02:09:35;;;;;;;1.77;1.67;;;2.90;99.90;;;;;;5240479;27;20225;-59
2024/04/17 02:12:01;;;;;;;2.17;1.67;;;2.90;99.90;;;;;;5240484;27;20336;-59
2024/04/17 02:14:27;;;;;;;2.00;1.47;;;2.90;99.90;;;;;;5240454;27;20237;-59
2024/04/17 02:16:53;;;;;;;1.80;1.50;;;2.90;99.90;;;;;;5240851;27;21059;-59
2024/04/17 02:19:18;;;;;;;4.90;1.87;;;2.90;99.90;;;;;;5240451;27;20234;-59
2024/04/17 02:21:44;;;;;;;1.70;1.60;;;2.90;99.90;;;;;;5240845;27;20287;-60
2024/04/17 02:24:09;;;;;;;4.27;1.97;;;2.80;99.90;;;;;;5240654;27;20289;-58
2024/04/17 02:26:35;;;;;;;7.30;2.10;;;3.00;99.90;;;;;;5240428;27;20280;-60
2024/04/17 02:29:01;;;;;;;2.03;1.53;;;2.90;99.90;;;;;;5240629;27;20356;-60
2024/04/17 02:31:26;;;;;;;1.80;1.70;;;2.90;99.90;;;;;;5240497;27;20245;-59
2024/04/17 02:33:52;;;;;;;2.57;1.80;;;2.90;99.90;;;;;;5240802;27;20250;-59
2024/04/17 02:36:17;;;;;;;1.87;1.73;;;2.90;99.90;;;;;;5240245;27;20656;-60
2024/04/17 02:38:43;;;;;;;2.77;2.30;;;2.80;99.90;;;;;;5240793;27;20276;-60
2024/04/17 02:41:09;;;;;;;4.03;2.40;;;2.80;99.90;;;;;;5240438;27;20230;-60
2024/04/17 02:43:34;;;;;;;2.37;2.17;;;2.80;99.90;;;;;;5240709;27;20229;-60
2024/04/17 02:46:00;;;;;;;1.93;1.80;;;2.90;99.90;;;;;;5240697;27;20627;-60
2024/04/17 02:48:25;;;;;;;2.37;2.17;;;2.80;99.90;;;;;;5240772;27;20226;-60
2024/04/17 02:50:51;;;;;;;2.00;1.90;;;2.80;99.90;;;;;;5240285;27;20343;-58
2024/04/17 02:53:16;;;;;;;2.70;1.80;;;2.90;99.90;;;;;;5240145;27;20237;-61
2024/04/17 02:55:42;;;;;;;1.80;1.50;;;2.90;99.90;;;;;;5240302;27;20245;-59
2024/04/17 02:58:07;;;;;;;1.63;1.53;;;2.90;99.90;;;;;;5239975;27;20233;-60
2024/04/17 03:00:33;;;;;;;4.03;2.20;;;2.80;99.90;;;;;;5240072;27;20272;-58
2024/04/17 03:03:04;;;;;;;2.80;2.10;;;2.90;99.90;;;;;;5240599;27;20419;-60
2024/04/17 03:05:32;;;;;;;4.93;2.80;;;2.90;99.90;;;;;;5240172;27;20273;-57
2024/04/17 03:07:58;;;;;;;2.47;2.27;;;2.90;99.90;;;;;;5240301;27;20473;-58
2024/04/17 03:10:23;;;;;;;2.70;1.80;;;2.90;99.90;;;;;;5239761;27;20469;-58
2024/04/17 03:12:49;;;;;;;3.27;2.23;;;2.90;99.90;;;;;;5239979;27;20237;-57
2024/04/17 03:15:15;;;;;;;1.93;1.67;;;2.90;99.90;;;;;;5240188;27;20242;-60
2024/04/17 03:17:40;;;;;;;2.87;2.57;;;2.90;99.90;;;;;;5265916;27;20260;-59
2024/04/17 03:20:06;;;;;;;2.13;1.83;;;3.00;99.90;;;;;;5240262;27;20250;-60
2024/04/17 03:22:31;;;;;;;4.03;2.67;;;3.00;99.90;;;;;;5239868;27;20237;-59
2024/04/17 03:24:57;;;;;;;2.30;1.93;;;3.00;99.90;;;;;;5239902;27;20241;-59
2024/04/17 03:27:23;;;;;;;2.43;2.10;;;3.00;99.90;;;;;;5239799;27;20740;-59
2024/04/17 03:29:48;;;;;;;3.10;1.90;;;3.10;99.90;;;;;;5239691;27;20403;-60
2024/04/17 03:32:14;;;;;;;3.20;1.87;;;3.10;99.90;;;;;;5239807;27;20233;-59
2024/04/17 03:34:39;;;;;;;2.70;1.60;;;3.10;99.90;;;;;;5239586;27;20893;-58
2024/04/17 03:37:05;;;;;;;2.13;1.87;;;3.10;99.90;;;;;;5239565;27;20230;-59
2024/04/17 03:39:30;;;;;;;2.60;2.40;;;3.10;99.90;;;;;;5239234;27;20269;-59
2024/04/17 03:41:56;;;;;;;2.70;1.87;;;3.10;99.90;;;;;;5239686;27;20352;-58
2024/04/17 03:44:22;;;;;;;2.80;2.30;;;3.20;99.90;;;;;;5239223;27;20233;-57
2024/04/17 03:46:48;;;;;;;4.67;2.60;;;3.20;99.90;;;;;;5239559;27;20370;-60
2024/04/17 03:49:15;;;;;;;5.90;2.27;;;3.20;99.90;;;;;;5239233;27;20584;-59
2024/04/17 03:51:40;;;;;;;5.00;2.60;;;3.30;99.90;;;;;;5239096;27;20681;-59
2024/04/17 03:54:06;;;;;;;4.80;2.63;;;3.30;99.90;;;;;;5239209;27;20525;-59
2024/04/17 03:56:31;;;;;;;5.17;1.93;;;3.40;99.90;;;;;;5239105;27;20230;-60
2024/04/17 03:58:57;;;;;;;4.97;2.10;;;3.40;99.90;;;;;;5239356;27;20712;-59
2024/04/17 04:01:22;;;;;;;7.90;2.13;;;3.40;99.90;;;;;;5239036;27;20268;-61
2024/04/17 04:03:48;;;;;;;5.83;2.53;;;3.40;99.90;;;;;;5239459;27;20229;-59
2024/04/17 04:06:14;;;;;;;3.83;2.53;;;3.40;99.90;;;;;;5239332;27;20712;-59
2024/04/17 04:08:39;;;;;;;4.53;2.53;;;3.50;99.90;;;;;;5239027;27;20315;-56
2024/04/17 04:11:05;;;;;;;4.23;2.80;;;3.40;99.90;;;;;;5238007;27;20272;-59
2024/04/17 04:13:30;;;;;;;5.93;2.33;;;3.40;99.90;;;;;;5239072;27;20724;-59
2024/04/17 04:15:56;;;;;;;4.47;2.53;;;3.50;99.90;;;;;;5239068;27;20342;-65
2024/04/17 04:18:21;;;;;;;5.10;2.37;;;3.60;99.90;;;;;;5238777;27;21029;-59
2024/04/17 04:20:47;;;;;;;2.87;2.43;;;3.60;99.90;;;;;;5298630;21;20833;-58
2024/04/17 04:23:13;;;;;;;3.10;2.60;;;3.60;99.90;;;;;;5280161;27;20653;-61
2024/04/17 04:25:38;;;;;;;7.63;2.73;;;3.70;99.90;;;;;;5280782;27;20219;-61
2024/04/17 04:28:04;;;;;;;4.77;2.80;;;3.70;99.90;;;;;;5280349;27;20988;-61
2024/04/17 04:30:31;;;;;;;3.90;2.57;;;3.70;99.90;;;;;;5260682;27;20233;-62
2024/04/17 04:32:57;;;;;;;3.80;2.73;;;3.70;99.90;;;;;;5240797;27;20225;-61
2024/04/17 04:35:23;;;;;;;4.47;3.20;;;3.70;99.90;;;;;;5242166;27;20585;-62
2024/04/17 04:37:48;;;;;;;4.57;2.90;;;3.80;99.90;;;;;;5241777;27;20221;-62
2024/04/17 04:40:14;;;;;;;6.80;3.57;;;3.80;99.90;;;;;;5242128;27;20279;-61
2024/04/17 04:42:39;;;;;;;4.90;3.07;;;3.80;99.90;;;;;;5241629;27;20255;-61
2024/04/17 04:45:05;;;;;;;4.17;3.30;;;3.80;99.90;;;;;;5241838;27;20229;-59
2024/04/17 04:47:31;;;;;;;5.30;2.73;;;3.90;99.90;;;;;;5241565;27;20740;-62
2024/04/17 04:49:56;;;;;;;6.47;3.67;;;4.00;99.90;;;;;;5241535;27;20525;-61
2024/04/17 04:52:22;;;;;;;4.60;3.40;;;4.00;99.90;;;;;;5241269;27;20273;-61
2024/04/17 04:54:48;;;;;;;2.70;2.50;;;4.10;99.90;;;;;;5241683;27;20651;-60
2024/04/17 04:57:13;;;;;;;5.43;3.20;;;4.10;99.90;;;;;;5241661;27;20305;-60
2024/04/17 04:59:39;;;;;;;3.90;3.10;;;4.20;99.90;;;;;;5241263;27;20615;-60
2024/04/17 05:02:04;;;;;;;4.37;3.37;;;4.20;99.90;;;;;;5241510;27;20230;-61
2024/04/17 05:04:30;;;;;;;3.43;1.97;;;4.30;99.90;;;;;;5241317;27;20221;-58
2024/04/17 05:06:55;;;;;;;2.60;2.40;;;4.30;99.90;;;;;;5241503;27;20263;-63
2024/04/17 05:09:21;;;;;;;3.30;2.37;;;4.40;99.90;;;;;;5241332;27;20720;-60
2024/04/17 05:11:47;;;;;;;3.40;2.37;;;4.40;99.90;;;;;;5255585;27;20269;-59
2024/04/17 05:14:13;;;;;;;3.57;2.83;;;4.50;99.90;;;;;;5241447;27;20238;-59
2024/04/17 05:16:38;;;;;;;4.70;2.87;;;4.60;99.90;;;;;;5241370;27;20516;-60
2024/04/17 05:19:04;;;;;;;2.97;2.33;;;4.70;99.90;;;;;;5241253;27;20705;-62
2024/04/17 05:21:29;;;;;;;2.90;2.60;;;4.90;99.90;;;;;;5241556;27;20229;-62
2024/04/17 05:23:55;;;;;;;5.67;2.37;;;4.90;99.90;;;;;;5244883;27;20233;-58
2024/04/17 05:26:21;;;;;;;8.13;3.03;;;4.90;99.90;;;;;;5244870;27;20225;-60
2024/04/17 05:28:46;;;;;;;3.20;2.37;;;4.90;99.90;;;;;;5244586;27;20221;-68
2024/04/17 05:31:12;;;;;;;3.60;2.30;;;4.90;99.90;;;;;;5244877;27;20233;-60
2024/04/17 05:33:37;;;;;;;2.60;2.40;;;5.00;99.90;;;;;;5244073;27;20276;-58
2024/04/17 05:36:03;;;;;;;3.00;2.70;;;5.00;99.90;;;;;;5244196;27;20225;-61
2024/04/17 05:38:29;;;;;;;4.70;2.57;;;5.10;99.90;;;;;;5244311;27;20257;-58
2024/04/17 05:40:54;;;;;;;2.70;1.90;;;5.10;99.90;;;;;;5244540;27;20473;-62
2024/04/17 05:43:20;;;;;;;5.43;2.30;;;5.00;99.90;;;;;;5251209;27;20281;-60
2024/04/17 05:45:46;;;;;;;3.03;2.43;;;5.10;99.90;;;;;;5244448;27;20267;-60
2024/04/17 05:48:11;;;;;;;6.27;3.20;;;5.40;99.90;;;;;;5244694;27;20332;-60
2024/04/17 05:50:38;;;;;;;5.40;3.30;;;5.70;99.90;;;;;;5243955;27;20233;-61
2024/04/17 05:53:03;;;;;;;4.33;2.80;;;5.50;99.90;;;;;;5244677;27;20271;-60
2024/04/17 05:55:29;;;;;;;4.70;3.27;;;5.60;99.90;;;;;;5244803;27;20971;-60
2024/04/17 05:57:55;;;;;;;4.23;2.50;;;5.80;99.90;;;;;;5244658;27;20229;-61
2024/04/17 06:00:20;;;;;;;3.33;3.00;;;6.30;99.90;;;;;;5244206;27;20278;-62
2024/04/17 06:02:46;;;;;;;4.23;3.50;;;6.10;99.90;;;;;;5244196;27;20349;-62
2024/04/17 06:05:12;;;;;;;4.47;2.60;;;6.50;99.90;;;;;;5244351;27;20852;-60
2024/04/17 06:07:38;;;;;;;3.30;2.50;;;6.60;99.90;;;;;;5244072;27;20237;-60
2024/04/17 06:10:04;;;;;;;12.83;2.50;;;6.60;99.90;;;;;;5244423;27;20284;-59
2024/04/17 06:12:30;;;;;;;4.00;2.10;;;6.60;99.90;;;;;;5243922;27;20511;-59
2024/04/17 06:14:56;;;;;;;7.17;1.93;;;6.70;99.90;;;;;;5244259;27;20537;-63
2024/04/17 06:17:22;;;;;;;4.60;2.17;;;6.90;99.90;;;;;;5244552;27;20226;-62
2024/04/17 06:19:48;;;;;;;5.37;2.20;;;6.90;99.90;;;;;;5243503;27;20272;-61
2024/04/17 06:22:14;;;;;;;4.00;2.47;;;6.50;99.90;;;;;;5244185;27;20464;-61
2024/04/17 06:24:40;;;;;;;3.43;2.23;;;6.30;99.90;;;;;;5244244;27;21552;-62
2024/04/17 06:27:06;;;;;;;4.43;2.00;;;6.30;99.90;;;;;;5244313;27;20474;-62
2024/04/17 06:29:32;;;;;;;5.57;2.77;;;6.30;99.90;;;;;;5243961;27;20245;-60
2024/04/17 06:31:57;;;;;;;5.40;2.20;;;6.40;99.90;;;;;;5243911;27;20341;-62
2024/04/17 06:34:23;;;;;;;3.67;2.30;;;6.40;99.90;;;;;;5242989;27;20732;-61
2024/04/17 06:36:48;;;;;;;3.20;2.20;;;6.90;99.90;;;;;;5243617;27;20701;-62
2024/04/17 06:39:14;;;;;;;3.57;2.13;;;7.10;99.90;;;;;;5243915;27;20231;-62
2024/04/17 06:41:40;;;;;;;2.20;2.00;;;7.40;99.90;;;;;;5243496;27;20341;-61
2024/04/17 06:44:05;;;;;;;4.37;2.73;;;7.90;99.90;;;;;;5243661;27;20222;-61
2024/04/17 06:46:31;;;;;;;2.77;1.60;;;8.00;99.90;;;;;;5243696;27;20226;-62
2024/04/17 06:48:56;;;;;;;2.40;1.93;;;9.00;99.90;;;;;;5243424;27;20884;-60
2024/04/17 06:51:22;;;;;;;2.07;1.70;;;9.70;99.90;;;;;;5243707;27;20237;-60
2024/04/17 06:53:47;;;;;;;2.43;1.93;;;10.80;99.90;;;;;;5243746;27;20724;-63
2024/04/17 06:56:13;;;;;;;4.20;2.07;;;10.40;99.90;;;;;;5257589;27;20232;-62
2024/04/17 06:58:39;;;;;;;7.10;2.00;;;10.40;99.90;;;;;;5243375;27;20228;-60
2024/04/17 07:01:05;;;;;;;3.00;1.80;;;10.00;99.90;;;;;;5243497;27;20271;-61
2024/04/17 07:03:30;;;;;;;4.53;1.90;;;9.50;99.90;;;;;;5243184;27;20450;-61
2024/04/17 07:06:03;;;;;;;2.07;1.70;;;9.80;99.90;;;;;;5243486;27;20275;-60
2024/04/17 07:08:29;;;;;;;3.30;2.33;;;9.10;99.90;;;;;;5243072;27;20229;-60
2024/04/17 07:10:54;;;;;;;4.80;1.87;;;9.10;99.90;;;;;;5243075;27;20589;-61
2024/04/17 07:13:20;;;;;;;2.87;2.13;;;8.90;99.90;;;;;;5243480;27;20387;-62
2024/04/17 07:15:46;;;;;;;2.10;1.63;;;9.10;99.90;;;;;;5242989;27;20273;-61
2024/04/17 07:18:12;;;;;;;1.77;1.57;;;8.90;99.90;;;;;;5242974;27;20230;-63
2024/04/17 07:20:38;;;;;;;8.80;1.80;;;9.10;99.90;;;;;;5245658;27;20707;-62
2024/04/17 07:23:03;;;;;;;1.40;1.20;;;9.00;99.90;;;;;;5243311;27;20293;-61
2024/04/17 07:25:29;;;;;;;1.50;1.40;;;8.80;99.90;;;;;;5243416;27;21003;-58
2024/04/17 07:27:55;;;;;;;2.10;1.50;;;8.70;99.90;;;;;;5243025;27;20289;-59
2024/04/17 07:30:20;;;;;;;5.40;1.70;;;9.40;99.90;;;;;;5242688;27;20230;-61
2024/04/17 07:32:46;;;;;;;3.90;2.07;;;9.00;99.90;;;;;;5242297;27;20588;-62
2024/04/17 07:35:12;;;;;;;2.40;1.50;;;9.30;99.90;;;;;;5242880;27;20268;-60
2024/04/17 07:37:37;;;;;;;2.97;2.23;;;9.60;99.90;;;;;;5242677;27;20951;-61
2024/04/17 07:40:04;;;;;;;4.00;2.07;;;10.70;99.90;;;;;;5242670;27;20249;-61
2024/04/17 07:42:29;;;;;;;4.03;2.10;;;10.30;99.90;;;;;;5259924;27;20707;-62
2024/04/17 07:44:55;;;;;;;1.43;1.10;;;10.90;99.90;;;;;;5241651;27;20463;-60
2024/04/17 07:47:20;;;;;;;2.93;1.30;;;11.60;99.90;;;;;;5244180;27;20245;-61
2024/04/17 07:49:46;;;;;;;2.00;1.23;;;11.70;99.90;;;;;;5242186;27;20762;-60
2024/04/17 07:52:12;;;;;;;2.90;1.33;;;12.00;99.90;;;;;;5242852;27;20231;-60
2024/04/17 07:54:37;;;;;;;4.07;1.50;;;12.00;99.90;;;;;;5242605;27;20230;-60
2024/04/17 07:57:03;;;;;;;10.27;1.47;;;10.90;99.90;;;;;;5242932;27;20234;-61
2024/04/17 07:59:29;;;;;;;3.27;1.87;;;11.50;99.90;;;;;;5251602;27;20286;-61
2024/04/17 08:01:54;;;;;;;1.30;1.13;;;11.30;99.90;;;;;;5262296;27;20477;-58
2024/04/17 08:04:20;;;;;;;5.40;1.60;;;11.60;99.90;;;;;;5256443;27;20230;-58
2024/04/17 08:06:46;;;;;;;3.30;2.00;;;11.40;99.90;;;;;;5262802;27;20222;-61
2024/04/17 08:09:11;;;;;;;2.00;1.60;;;10.20;99.90;;;;;;5247768;27;20531;-61
2024/04/17 08:11:37;;;;;;;3.30;1.70;;;10.50;99.90;;;;;;5241841;27;20339;-61
2024/04/17 08:14:03;;;;;;;2.17;1.70;;;11.30;99.90;;;;;;5242234;27;20339;-61
2024/04/17 08:16:29;;;;;;;2.17;1.93;;;10.50;99.90;;;;;;5242201;27;20713;-61
2024/04/17 08:18:54;;;;;;;2.67;1.70;;;10.10;99.90;;;;;;5241780;27;21051;-59
2024/04/17 08:21:21;;;;;;;3.80;1.87;;;10.00;99.90;;;;;;5242264;27;20280;-59
2024/04/17 08:23:47;;;;;;;3.07;2.17;;;9.90;99.90;;;;;;5242008;27;20767;-59
2024/04/17 08:26:12;;;;;;;2.70;1.83;;;9.90;99.90;;;;;;5242385;27;20470;-58
2024/04/17 08:28:38;;;;;;;5.40;2.07;;;10.50;99.90;;;;;;5242085;27;20462;-63
2024/04/17 08:31:04;;;;;;;4.90;2.03;;;10.60;99.90;;;;;;5241821;27;20236;-62
2024/04/17 08:33:30;;;;;;;4.40;1.90;;;10.40;99.90;;;;;;5242097;27;20281;-62
2024/04/17 08:35:55;;;;;;;2.80;1.90;;;10.40;99.90;;;;;;5241567;27;20522;-62
2024/04/17 08:38:21;;;;;;;4.93;1.90;;;9.80;99.90;;;;;;5241895;27;20282;-62
2024/04/17 08:40:46;;;;;;;3.00;2.00;;;10.60;99.90;;;;;;5241598;27;20276;-60
2024/04/17 08:43:24;;;;;;;5.10;2.70;;;10.00;99.90;;;;;;5260742;27;20222;-62
2024/04/17 08:45:53;;;;;;;8.80;3.23;;;10.10;99.90;;;;;;5243488;27;20342;-62
2024/04/17 08:48:20;;;;;;;2.43;1.43;;;10.30;99.90;;;;;;5247875;27;20522;-61
2024/04/17 08:50:46;;;;;;;2.97;1.60;;;10.50;99.90;;;;;;5241021;27;20472;-59
2024/04/17 08:53:14;;;;;;;1.47;1.37;;;10.50;99.90;;;;;;5241769;27;20517;-61
2024/04/17 08:55:41;;;;;;;2.40;1.60;;;10.80;99.90;;;;;;5241342;27;20225;-61
2024/04/17 08:58:07;;;;;;;1.37;1.27;;;11.10;99.90;;;;;;5256365;27;20602;-60
2024/04/17 09:00:37;;;;;;;2.27;1.27;;;12.10;99.90;;;;;;5244606;27;20531;-59
2024/04/17 09:03:09;;;;;;;2.10;1.60;;;12.20;99.90;;;;;;5244905;27;20536;-60
2024/04/17 09:05:35;;;;;;;4.43;1.40;;;12.20;99.90;;;;;;5244950;27;20467;-60
2024/04/17 09:08:00;;;;;;;1.47;1.33;;;11.80;99.90;;;;;;5244802;27;20522;-61
2024/04/17 09:10:27;;;;;;;9.40;1.30;;;12.50;99.90;;;;;;5244815;27;20349;-61
2024/04/17 09:12:56;;;;;;;1.27;1.10;;;12.90;99.90;;;;;;5244447;27;20281;-62
2024/04/17 09:15:21;;;;;;;4.07;1.67;;;13.70;99.90;;;;;;5244427;27;20485;-62
2024/04/17 09:17:47;;;;;;;1.63;1.53;;;14.00;99.90;;;;;;5244350;27;20982;-62
2024/04/17 09:20:13;;;;;;;3.23;1.50;;;15.20;98.70;;;;;;5244201;27;20231;-62
2024/04/17 09:22:39;;;;;;;6.83;1.20;;;15.30;95.10;;;;;;5244374;27;20332;-62
2024/04/17 09:25:24;;;;;;;3.63;1.47;;;15.10;90.50;;;;;;5244706;27;20843;-62
2024/04/17 09:27:50;;;;;;;3.43;1.27;;;12.70;97.10;;;;;;5244239;27;20283;-61
2024/04/17 09:30:15;;;;;;;2.57;1.27;;;11.50;98.10;;;;;;5244280;27;20482;-61
2024/04/17 09:32:42;;;;;;;7.40;1.80;;;11.40;99.10;;;;;;5244216;27;20273;-60
2024/04/17 09:35:10;;;;;;;2.80;1.40;;;11.20;99.90;;;;;;5244507;27;20245;-61
2024/04/17 09:37:37;;;;;;;8.30;5.37;;;11.70;97.80;;;;;;5244822;27;20522;-61
2024/04/17 09:40:08;;;;;;;3.53;1.57;;;12.10;98.30;;;;;;5244199;27;20479;-62
2024/04/17 09:42:35;;;;;;;2.80;2.10;;;11.70;99.90;;;;;;5264672;27;20477;-60
2024/04/17 09:45:01;;;;;;;2.20;1.43;;;11.70;99.70;;;;;;5251603;27;20537;-61
2024/04/17 09:47:28;;;;;;;1.40;1.30;;;12.40;97.50;;;;;;5251587;27;20468;-62
2024/04/17 09:49:56;;;;;;;3.17;1.57;;;13.00;98.90;;;;;;5243749;27;20805;-59
2024/04/17 09:52:22;;;;;;;2.37;1.60;;;12.30;95.40;;;;;;5244233;27;20598;-60
2024/04/17 09:54:50;;;;;;;2.23;1.70;;;13.00;98.00;;;;;;5246828;27;20471;-61
2024/04/17 09:57:16;;;;;;;1.70;0.97;;;12.60;94.90;;;;;;5244848;27;20272;-60
2024/04/17 09:59:42;;;;;;;4.03;1.40;;;12.80;95.30;;;;;;5243930;27;20824;-69
2024/04/17 10:02:14;;;;;;;2.77;1.43;;;12.90;94.10;;;;;;5244873;27;20603;-55
2024/04/17 10:04:41;;;;;;;2.60;1.47;;;12.30;92.10;;;;;;5244457;27;20522;-69
2024/04/17 10:07:11;;;;;;;1.73;1.30;;;12.90;95.10;;;;;;5244289;27;20878;-59
2024/04/17 10:09:39;;;;;;;6.60;2.07;;;12.80;93.80;;;;;;5243078;27;20465;-59
2024/04/17 10:12:07;;;;;;;2.20;1.93;;;12.40;92.70;;;;;;5260078;27;20522;-60
2024/04/17 10:14:34;;;;;;;2.13;1.73;;;12.20;94.80;;;;;;5250940;27;21018;-60
2024/04/17 10:17:00;;;;;;;3.60;2.07;;;12.80;95.40;;;;;;5243720;27;21072;-58
2024/04/17 10:19:26;;;;;;;3.40;1.80;;;13.50;91.80;;;;;;5248498;27;20473;-62
2024/04/17 10:21:54;;;;;;;2.70;2.03;;;13.50;90.30;;;;;;5272121;21;20291;-57
2024/04/17 10:24:19;;;;;;;2.47;1.57;;;12.60;86.80;;;;;;5278953;27;20241;-59
2024/04/17 10:26:50;;;;;;;1.63;1.40;;;12.70;90.60;;;;;;5283280;27;21016;-59
2024/04/17 10:29:17;;;;;;;3.10;1.40;;;13.00;90.10;;;;;;5277832;26;20707;-57
2024/04/17 10:31:57;;;;;;;2.20;1.43;;;13.70;90.20;;;;;;5264362;27;20513;-60
2024/04/17 10:34:23;;;;;;;2.30;1.57;;;13.20;88.00;;;;;;5254789;27;20545;-61
2024/04/17 10:37:02;;;;;;;1.10;1.00;;;13.10;89.10;;;;;;5244493;27;20947;-61
2024/04/17 10:39:29;;;;;;;1.97;1.77;;;12.80;78.80;;;;;;5240487;27;20512;-64
2024/04/17 10:41:56;;;;;;;1.47;1.30;;;12.50;75.80;;;;;;5262299;27;20526;-60
2024/04/17 10:44:22;;;;;;;1.67;1.17;;;12.80;76.00;;;;;;5240597;27;20601;-59
2024/04/17 10:46:48;;;;;;;1.90;1.13;;;13.00;74.00;;;;;;5252327;27;20472;-61
2024/04/17 10:49:22;;;;;;;1.50;0.97;;;12.90;75.70;;;;;;5240814;27;20273;-60
2024/04/17 10:51:48;;;;;;;4.20;1.10;;;13.00;75.20;;;;;;5240212;27;20380;-59
2024/04/17 10:54:14;;;;;;;4.57;1.07;;;12.90;68.40;;;;;;5243798;27;20541;-62
2024/04/17 10:56:40;;;;;;;2.70;1.83;;;12.70;62.50;;;;;;5240288;27;21214;-60
2024/04/17 10:59:05;;;;;;;2.83;1.13;;;12.60;59.80;;;;;;5239366;27;20264;-61
2024/04/17 11:01:31;;;;;;;1.07;0.97;;;12.70;61.40;;;;;;5239961;27;20469;-61
2024/04/17 11:04:00;;;;;;;5.03;1.43;;;12.80;60.00;;;;;;5239965;27;20344;-61
2024/04/17 11:06:26;;;;;;;1.27;1.17;;;12.90;61.00;;;;;;5240166;27;20685;-61
2024/04/17 11:08:52;;;;;;;2.40;1.37;;;12.80;62.60;;;;;;5239751;27;20454;-60
2024/04/17 11:11:18;;;;;;;1.37;1.00;;;12.60;64.20;;;;;;5240234;27;20643;-60
2024/04/17 11:13:44;;;;;;;2.20;1.00;;;12.50;67.10;;;;;;5239804;27;20862;-61
2024/04/17 11:16:10;;;;;;;1.13;1.03;;;13.10;65.40;;;;;;5239940;27;20544;-60
2024/04/17 11:18:36;;;;;;;1.47;1.37;;;13.80;63.70;;;;;;5240427;27;20511;-60
2024/04/17 11:21:03;;;;;;;2.37;1.50;;;14.00;62.60;;;;;;5239541;27;20541;-60
2024/04/17 11:23:40;;;;;;;5.90;1.43;;;13.60;61.60;;;;;;5240456;27;20612;-59
2024/04/17 11:26:06;;;;;;;1.27;0.90;;;13.10;63.00;;;;;;5239771;27;21019;-59
2024/04/17 11:28:32;;;;;;;3.90;1.40;;;13.10;63.60;;;;;;5240045;27;20449;-60
2024/04/17 11:30:58;;;;;;;1.20;1.10;;;13.00;61.70;;;;;;5239564;27;20473;-60
2024/04/17 11:33:26;;;;;;;1.20;0.93;;;12.60;62.30;;;;;;5239731;27;20337;-61
2024/04/17 11:36:12;;;;;;;1.80;1.13;;;12.50;63.00;;;;;;5239441;27;20576;-60
2024/04/17 11:38:43;;;;;;;3.30;1.30;;;12.70;64.50;;;;;;5239615;27;20511;-60
2024/04/17 11:41:14;;;;;;;0.90;0.87;;;12.40;64.90;;;;;;5246806;27;20520;-59
2024/04/17 11:43:40;;;;;;;2.00;1.23;;;11.80;60.80;;;;;;5253139;27;20473;-59
2024/04/17 11:46:07;;;;;;;2.23;1.10;;;11.50;61.80;;;;;;5239434;27;20521;-60
2024/04/17 11:48:33;;;;;;;1.03;0.93;;;11.50;60.40;;;;;;5239674;27;20827;-57
2024/04/17 11:50:58;;;;;;;3.33;1.90;;;11.50;60.00;;;;;;5239058;27;20548;-58
2024/04/17 11:53:24;;;;;;;2.10;1.20;;;12.50;60.00;;;;;;5239533;27;20381;-60
2024/04/17 11:55:50;;;;;;;2.30;1.30;;;12.40;55.30;;;;;;5242821;27;20349;-60
2024/04/17 11:58:16;;;;;;;1.73;1.33;;;12.20;54.20;;;;;;5239325;27;20225;-61
2024/04/17 12:00:43;;;;;;;3.30;1.30;;;12.60;56.30;;;;;;5239476;27;20875;-61
2024/04/17 12:03:09;;;;;;;1.20;1.10;;;12.90;53.30;;;;;;5239363;27;20465;-59
2024/04/17 12:05:34;;;;;;;1.53;1.10;;;12.80;50.90;;;;;;5239308;27;20465;-60
2024/04/17 12:08:00;;;;;;;2.40;1.00;;;12.90;51.20;;;;;;5239075;27;20245;-59
2024/04/17 12:10:26;;;;;;;2.67;1.47;;;12.50;51.70;;;;;;5248314;27;20539;-59
2024/04/17 12:12:51;;;;;;;2.40;1.53;;;11.90;55.20;;;;;;5269565;26;20755;-59
2024/04/17 12:15:17;;;;;;;3.47;1.70;;;11.60;57.20;;;;;;5235754;27;20770;-60
2024/04/17 12:17:43;;;;;;;1.33;1.20;;;11.50;58.80;;;;;;5238412;27;20339;-59
2024/04/17 12:20:08;;;;;;;1.40;1.30;;;11.30;62.10;;;;;;5238541;27;20233;-60
2024/04/17 12:22:34;;;;;;;1.60;1.50;;;11.40;59.70;;;;;;5241582;27;20324;-64
2024/04/17 12:27:45;;;;;;;1.70;1.13;;;11.50;59.90;;;;;;5238987;27;20324;-58
2024/04/17 12:30:11;;;;;;;2.53;1.67;;;11.30;58.70;;;;;;5238585;27;21063;-60
2024/04/17 12:32:36;;;;;;;2.37;1.40;;;11.20;59.30;;;;;;5238111;27;20494;-62
2024/04/17 12:35:03;;;;;;;2.10;1.20;;;11.70;58.40;;;;;;5238506;27;20277;-60
2024/04/17 12:37:29;;;;;;;2.37;1.20;;;12.10;56.90;;;;;;5241128;27;20241;-60
2024/04/17 12:39:56;;;;;;;1.23;1.13;;;12.60;54.80;;;;;;5238234;27;20967;-60
2024/04/17 12:42:22;;;;;;;2.00;1.20;;;12.70;53.90;;;;;;5263779;27;20700;-60
2024/04/17 12:44:48;;;;;;;2.70;1.10;;;12.60;53.10;;;;;;5238412;27;20955;-58
2024/04/17 12:47:14;;;;;;;3.87;1.40;;;12.70;53.20;;;;;;5248092;27;20453;-59
2024/04/17 12:49:39;;;;;;;1.10;0.80;;;12.70;53.40;;;;;;5238710;27;20458;-60